Meteo Giornale » Osservazioni meteo Italia » Milano-Malpensa

ore: 00:20 - Osservazioni Meteo Milano-Malpensa
Lat. 45° 37' N Lon. 8° 44' E Alt. 234 metri s.l.m.

nebbia Europe/Rome

9 °C

Banco di Nebbia

Temp. 24 Ore

1 °C

16 °C

Nord

5.5 Km/h

Dew point 6 °C

Umidità 81 %

Visibilità  6 Km

Il sole sorge alle ore 07:10

Il sole tramonta alle ore 18:05

Data e Ora Cielo e Fenomeni T °C DP °C Um. % Pres. hPa Vis. km Vento km/h
Oggi h: 00:20 nebbia Banco di Nebbia 9 6 81 1021 6 N 5.5
Ieri h: 23:50 nebbia Banco di Nebbia 8 6 87 1021 6 N 5.5
Ieri h: 23:20 nebbia Banco di Nebbia 7 6 93 1021 8 N 3.7
Ieri h: 22:50 sereno Sereno 9 8 93 1022 10 N 5.5
Ieri h: 22:20 sereno Sereno 8 7 93 1022 10 N 5.5
Ieri h: 21:50 sereno Sereno 10 7 81 1022 10 O/SO 9.3
Ieri h: 21:20 sereno Sereno 10 7 81 1022 10 SO 7.4
Ieri h: 20:50 sereno Sereno 8 5 81 1022 10 N 1.8
Ieri h: 20:20 sereno Sereno 12 7 71 1022 10 O/SO 7.4
Ieri h: 19:50 sereno Sereno 12 7 71 1023 10 SO 7.4
Ieri h: 19:20 sereno Sereno 13 7 66 1023 10 SO 7.4
Ieri h: 18:50 sereno Sereno 13 6 62 1023 10 SO 7.4
Ieri h: 18:20 sereno Sereno 13 7 66 1023 10 N 5.5
Ieri h: 17:50 sereno Sereno 14 7 62 1022 10 O/SO 11.1
Ieri h: 17:20 sereno Sereno 14 7 62 1023 10 SO 14.8
Ieri h: 16:50 sereno Sereno 15 7 58 1023 10 O/SO 16.7
Ieri h: 16:20 sereno Sereno 16 6 51 1023 10 O 13
Ieri h: 15:50 sereno Sereno 15 6 54 1023 10 O/SO 18.5
Ieri h: 15:20 sereno Sereno 16 7 55 1023 10 O/SO 13
Ieri h: 14:50 sereno Sereno 16 7 55 1024 10 O/SO 14.8
Ieri h: 14:20 sereno Sereno 16 7 55 1024 10 O/SO 11.1
Ieri h: 13:50 sereno Sereno 15 7 58 1024 10 O/SO 14.8
Ieri h: 13:20 sereno Sereno 15 7 58 1025 10 O/SO 16.7
Ieri h: 12:50 sereno Sereno 15 5 51 1026 10 SO 13
Ieri h: 12:20 sereno Sereno 14 4 50 1026 9 O 13
Ieri h: 11:50 sereno Sereno 14 3 47 1026 9 O 9.3
Ieri h: 11:20 sereno Sereno 13 3 50 1027 7 N 5.5
Ieri h: 10:50 sereno Sereno 12 2 50 1027 7 N 3.7
Ieri h: 10:20 sereno Sereno 11 3 57 1027 10 N 1.8
Ieri h: 09:50 sereno Sereno 8 3 70 1027 10 N 11.1
Ieri h: 09:20 sereno Sereno 6 4 86 1027 6 N 11.1
Ieri h: 08:50 foschia Foschia 3 2 93 1027 4 N 9.3
Ieri h: 08:20 foschia Foschia 1 0 93 1027 4 N 7.4
Ieri h: 07:50 foschia Foschia 1 0 93 1027 4 N 9.3
Ieri h: 07:20 foschia Foschia Nebbia nelle Vicinanze 2 1 93 1027 4 N 5.5
Ieri h: 06:50 sereno Sereno 1 0 93 1027 7 N 7.4
Ieri h: 06:20 sereno Sereno 1 -0 93 1027 8 N 9.3
Ieri h: 05:50 sereno Sereno 1 0 93 1027 8 N 9.3
Ieri h: 04:50 sereno Sereno 1 0 93 1027 7 N/NE 11.1
Ieri h: 03:20 sereno Sereno 2 -0 86 1028 7 N 9.3
Ieri h: 02:50 sereno Sereno 2 0 86 1029 8 N 9.3
Ieri h: 02:20 sereno Sereno 3 1 86 1029 10 N 14.8
Ieri h: 01:50 sereno Sereno 3 1 86 1029 10 N/NE 7.4
Ieri h: 01:20 sereno Sereno 2 0 86 1029 10 N/NE 7.4
Ieri h: 00:50 sereno Sereno 2 -0 86 1030 10 N 7.4